createdAt,value
2018-11-04T00:01:25.406Z,12.90
2018-11-04T00:03:53.912Z,13.43
2018-11-04T00:06:22.295Z,12.73
2018-11-04T00:08:50.704Z,13.20
2018-11-04T00:11:19.092Z,12.67
2018-11-04T00:13:47.498Z,12.43
2018-11-04T00:16:15.872Z,12.33
2018-11-04T00:18:44.256Z,12.03
2018-11-04T00:21:12.640Z,13.60
2018-11-04T00:23:41.101Z,12.00
2018-11-04T00:26:09.469Z,12.23
2018-11-04T00:28:37.913Z,12.90
2018-11-04T00:31:06.598Z,13.10
2018-11-04T00:33:35.047Z,12.13
2018-11-04T00:36:03.424Z,12.13
2018-11-04T00:38:31.837Z,11.50
2018-11-04T00:41:00.240Z,13.47
2018-11-04T00:43:28.641Z,12.33
2018-11-04T00:45:57.182Z,12.17
2018-11-04T00:48:25.696Z,12.33
2018-11-04T00:50:54.106Z,11.70
2018-11-04T00:53:22.523Z,12.37
2018-11-04T00:55:53.996Z,12.17
2018-11-04T00:58:23.171Z,14.03
2018-11-04T01:00:51.655Z,13.23
2018-11-04T01:03:20.032Z,12.40
2018-11-04T01:05:48.383Z,13.03
2018-11-04T01:08:16.793Z,12.20
2018-11-04T01:10:45.174Z,11.47
2018-11-04T01:13:13.655Z,12.47
2018-11-04T01:15:42.138Z,11.93
2018-11-04T01:18:10.516Z,12.33
2018-11-04T01:20:38.908Z,12.17
2018-11-04T01:23:07.287Z,12.17
2018-11-04T01:25:35.651Z,12.17
2018-11-04T01:28:04.122Z,11.37
2018-11-04T01:30:32.495Z,12.30
2018-11-04T01:33:00.919Z,10.83
2018-11-04T01:35:29.378Z,11.03
2018-11-04T01:37:57.762Z,11.70
2018-11-04T01:40:26.237Z,12.10
2018-11-04T01:42:54.684Z,12.33
2018-11-04T01:45:23.303Z,12.57
2018-11-04T01:47:51.715Z,12.03
2018-11-04T01:50:20.113Z,12.87
2018-11-04T01:52:48.472Z,12.70
2018-11-04T01:55:16.841Z,11.93
2018-11-04T01:57:45.224Z,12.60
2018-11-04T02:00:14.929Z,12.37
2018-11-04T02:02:43.996Z,12.30
2018-11-04T02:05:13.029Z,13.57
2018-11-04T02:07:41.561Z,13.27
2018-11-04T02:10:11.614Z,12.53
2018-11-04T02:12:40.194Z,13.53
2018-11-04T02:15:10.042Z,13.03
2018-11-04T02:17:38.665Z,13.43
2018-11-04T02:20:08.453Z,13.87
2018-11-04T02:22:36.876Z,13.17
2018-11-04T02:25:06.090Z,14.17
2018-11-04T02:27:34.605Z,15.03
2018-11-04T02:30:02.998Z,13.37
2018-11-04T02:32:31.410Z,13.90
2018-11-04T02:34:59.817Z,13.60
2018-11-04T02:37:28.288Z,12.67
2018-11-04T02:39:56.715Z,12.30
2018-11-04T02:42:25.141Z,13.37
2018-11-04T02:44:53.668Z,12.27
2018-11-04T02:47:22.163Z,13.17
2018-11-04T02:49:50.599Z,12.33
2018-11-04T02:52:18.984Z,12.97
2018-11-04T02:54:47.398Z,13.57
2018-11-04T02:57:15.806Z,12.63
2018-11-04T02:59:44.251Z,13.33
2018-11-04T03:02:12.657Z,14.50
2018-11-04T03:04:41.036Z,13.67
2018-11-04T03:07:09.560Z,14.07
2018-11-04T03:09:38.030Z,14.03
2018-11-04T03:12:06.409Z,12.90
2018-11-04T03:14:35.018Z,14.37
2018-11-04T03:17:03.580Z,13.63
2018-11-04T03:19:32.013Z,14.00
2018-11-04T03:22:00.397Z,13.93
2018-11-04T03:24:29.472Z,14.80
2018-11-04T03:26:57.822Z,14.10
2018-11-04T03:29:26.283Z,14.20
2018-11-04T03:31:54.740Z,13.90
2018-11-04T03:34:23.299Z,13.73
2018-11-04T03:36:51.660Z,13.77
2018-11-04T03:39:20.059Z,13.83
2018-11-04T03:41:48.475Z,13.87
2018-11-04T03:44:16.923Z,14.10
2018-11-04T03:46:45.484Z,15.87
2018-11-04T03:49:14.755Z,15.67
2018-11-04T03:51:43.252Z,15.23
2018-11-04T03:54:11.914Z,15.40
2018-11-04T03:57:53.790Z,16.43
2018-11-04T04:00:24.348Z,17.73
2018-11-04T04:02:52.916Z,17.27
2018-11-04T04:05:25.200Z,17.07
2018-11-04T04:07:57.524Z,18.10
2018-11-04T04:10:26.009Z,17.73
2018-11-04T04:12:54.546Z,18.60
2018-11-04T04:15:22.999Z,19.40
2018-11-04T04:17:52.269Z,17.87
2018-11-04T04:20:20.715Z,18.50
2018-11-04T04:22:49.107Z,17.83
2018-11-04T04:25:17.570Z,18.23
2018-11-04T04:27:45.977Z,17.90
2018-11-04T04:30:15.290Z,17.87
2018-11-04T04:32:43.746Z,18.97
2018-11-04T04:35:12.434Z,17.80
2018-11-04T04:37:41.420Z,18.43
2018-11-04T04:40:10.057Z,17.33
2018-11-04T04:42:38.432Z,17.90
2018-11-04T04:45:06.835Z,21.30
2018-11-04T04:47:39.990Z,18.33
2018-11-04T04:50:08.419Z,16.03
2018-11-04T04:52:38.237Z,16.77
2018-11-04T04:55:06.683Z,18.30
2018-11-04T04:57:35.113Z,18.10
2018-11-04T05:00:03.537Z,18.50
2018-11-04T05:02:31.925Z,16.60
2018-11-04T05:05:01.032Z,17.60
2018-11-04T05:07:29.432Z,18.03
2018-11-04T05:09:57.816Z,18.23
2018-11-04T05:12:26.245Z,19.70
2018-11-04T05:14:54.627Z,20.50
2018-11-04T05:17:23.075Z,18.83
2018-11-04T05:19:51.434Z,19.67
2018-11-04T05:22:21.589Z,19.27
2018-11-04T05:24:50.192Z,19.93
2018-11-04T05:28:21.481Z,20.00
2018-11-04T05:30:49.886Z,21.20
2018-11-04T05:33:18.254Z,20.80
2018-11-04T05:35:47.212Z,20.90
2018-11-04T05:38:15.680Z,20.73
2018-11-04T05:40:44.432Z,20.17
2018-11-04T05:43:12.796Z,22.67
2018-11-04T05:45:42.268Z,21.20
2018-11-04T05:48:10.716Z,20.83
2018-11-04T05:50:39.101Z,20.97
2018-11-04T05:53:07.527Z,22.40
2018-11-04T05:58:10.669Z,21.87
2018-11-04T06:00:39.008Z,24.43
2018-11-04T06:03:07.521Z,23.00
2018-11-04T06:05:35.919Z,24.50
2018-11-04T06:08:04.521Z,25.60
2018-11-04T06:10:33.044Z,24.43
2018-11-04T06:13:01.459Z,27.23
2018-11-04T06:15:29.880Z,25.00
2018-11-04T06:17:58.353Z,27.30
2018-11-04T06:20:26.761Z,27.13
2018-11-04T06:22:55.263Z,28.73
2018-11-04T06:25:23.731Z,27.70
2018-11-04T06:27:52.146Z,28.77
2018-11-04T06:30:20.827Z,29.37
2018-11-04T06:32:51.372Z,27.63
2018-11-04T06:35:19.830Z,28.67
2018-11-04T06:37:48.279Z,28.50
2018-11-04T06:40:16.723Z,29.57
2018-11-04T06:42:45.620Z,26.17
2018-11-04T06:45:14.076Z,28.80
2018-11-04T06:47:42.568Z,27.97
2018-11-04T06:50:13.799Z,26.07
2018-11-04T06:52:43.108Z,26.50
2018-11-04T06:55:11.778Z,26.67
2018-11-04T06:57:40.676Z,26.23
2018-11-04T07:00:10.679Z,29.07
2018-11-04T07:02:39.429Z,28.50
2018-11-04T07:05:07.876Z,28.37
2018-11-04T07:07:36.515Z,27.37
2018-11-04T07:10:06.264Z,28.63
2018-11-04T07:12:34.689Z,28.50
2018-11-04T07:15:03.433Z,28.47
2018-11-04T07:17:32.008Z,28.03
2018-11-04T07:20:00.589Z,28.20
2018-11-04T07:22:29.005Z,28.23
2018-11-04T07:24:57.413Z,26.23
2018-11-04T07:27:25.893Z,27.70
2018-11-04T07:29:54.291Z,27.00
2018-11-04T07:32:22.897Z,28.30
2018-11-04T07:34:57.915Z,28.13
2018-11-04T07:37:26.415Z,27.90
2018-11-04T07:39:54.864Z,27.80
2018-11-04T07:42:23.298Z,29.13
2018-11-04T07:44:51.730Z,26.90
2018-11-04T07:47:20.187Z,27.20
2018-11-04T07:49:48.608Z,26.27
2018-11-04T07:52:17.096Z,27.70
2018-11-04T07:54:45.595Z,27.33
2018-11-04T07:57:14.014Z,27.83
2018-11-04T07:59:43.048Z,28.97
2018-11-04T08:02:12.296Z,26.47
2018-11-04T08:04:40.740Z,29.23
2018-11-04T08:07:09.258Z,26.17
2018-11-04T08:09:37.785Z,27.50
2018-11-04T08:12:06.292Z,28.97
2018-11-04T08:14:34.733Z,33.23
2018-11-04T08:17:03.243Z,29.53
2018-11-04T08:19:31.694Z,30.33
2018-11-04T08:22:00.212Z,28.67
2018-11-04T08:24:28.730Z,26.50
2018-11-04T08:26:57.237Z,27.37
2018-11-04T08:29:25.685Z,27.43
2018-11-04T08:31:54.370Z,28.13
2018-11-04T08:34:22.807Z,28.43
2018-11-04T08:36:51.170Z,27.20
2018-11-04T08:39:19.553Z,28.30
2018-11-04T08:41:47.980Z,27.47
2018-11-04T08:44:16.440Z,27.80
2018-11-04T08:46:44.896Z,31.20
2018-11-04T08:49:13.312Z,28.63
2018-11-04T08:51:41.785Z,29.17
2018-11-04T08:54:10.192Z,29.77
2018-11-04T08:56:38.598Z,29.70
2018-11-04T08:59:07.008Z,27.97
2018-11-04T09:01:35.441Z,29.97
2018-11-04T09:04:04.038Z,29.33
2018-11-04T09:06:32.472Z,29.93
2018-11-04T09:09:01.031Z,29.67
2018-11-04T09:11:29.605Z,30.33
2018-11-04T09:13:58.151Z,29.33
2018-11-04T09:16:26.639Z,29.90
2018-11-04T09:18:55.347Z,30.00
2018-11-04T09:21:24.003Z,31.13
2018-11-04T09:23:52.436Z,30.47
2018-11-04T09:26:20.859Z,29.37
2018-11-04T09:28:50.342Z,30.03
2018-11-04T09:31:18.774Z,31.10
2018-11-04T09:33:47.218Z,32.77
2018-11-04T09:36:15.841Z,32.93
2018-11-04T09:38:44.058Z,39.57
2018-11-04T09:41:12.479Z,33.37
2018-11-04T09:43:40.890Z,33.10
2018-11-04T09:46:09.324Z,37.00
2018-11-04T09:48:37.671Z,32.37
2018-11-04T09:51:06.091Z,34.20
2018-11-04T09:53:34.505Z,32.73
2018-11-04T09:56:02.895Z,33.67
2018-11-04T09:58:31.283Z,34.63
2018-11-04T10:00:59.728Z,34.37
2018-11-04T10:03:28.114Z,32.87
2018-11-04T10:05:56.510Z,33.10
2018-11-04T10:08:24.931Z,33.83
2018-11-04T10:10:53.363Z,33.00
2018-11-04T10:13:21.800Z,34.83
2018-11-04T10:15:50.516Z,35.33
2018-11-04T10:18:18.927Z,34.73
2018-11-04T10:20:47.727Z,35.23
2018-11-04T10:23:15.827Z,35.33
2018-11-04T10:25:44.268Z,34.20
2018-11-04T10:28:12.699Z,36.13
2018-11-04T10:30:41.103Z,35.27
2018-11-04T10:33:09.522Z,35.57
2018-11-04T10:35:38.033Z,34.43
2018-11-04T10:38:06.977Z,35.40
2018-11-04T10:40:35.549Z,34.47
2018-11-04T10:43:04.191Z,33.93
2018-11-04T10:45:32.631Z,34.73
2018-11-04T10:48:01.021Z,35.17
2018-11-04T10:50:29.508Z,36.53
2018-11-04T10:52:57.910Z,35.00
2018-11-04T10:55:26.325Z,34.83
2018-11-04T10:57:54.809Z,35.33
2018-11-04T11:00:28.604Z,34.07
2018-11-04T11:02:57.029Z,35.67
2018-11-04T11:05:25.529Z,36.77
2018-11-04T11:07:54.033Z,33.63
2018-11-04T11:10:22.430Z,33.50
2018-11-04T11:12:50.814Z,34.47
2018-11-04T11:15:19.187Z,33.70
2018-11-04T11:17:47.589Z,36.30
2018-11-04T11:20:16.014Z,35.60
2018-11-04T11:22:44.611Z,34.33
2018-11-04T11:25:18.965Z,36.17
2018-11-04T11:27:47.430Z,37.80
2018-11-04T11:30:15.967Z,37.60
2018-11-04T11:32:45.415Z,34.90
2018-11-04T11:35:13.813Z,34.00
2018-11-04T11:37:42.244Z,36.20
2018-11-04T11:40:12.455Z,35.63
2018-11-04T11:42:41.055Z,36.67
2018-11-04T11:45:10.094Z,36.60
2018-11-04T11:47:38.620Z,34.90
2018-11-04T11:50:07.509Z,35.33
2018-11-04T11:52:35.954Z,35.47
2018-11-04T11:55:04.476Z,35.33
2018-11-04T11:57:33.066Z,34.67
2018-11-04T12:00:01.532Z,34.73
2018-11-04T12:02:29.941Z,34.10
2018-11-04T12:04:58.336Z,36.43
2018-11-04T12:07:26.789Z,36.73
2018-11-04T12:09:55.174Z,35.40
2018-11-04T12:12:23.635Z,33.60
2018-11-04T12:14:52.039Z,35.83
2018-11-04T12:17:20.550Z,35.83
2018-11-04T12:19:48.910Z,34.30
2018-11-04T12:22:17.409Z,33.93
2018-11-04T12:24:45.765Z,34.70
2018-11-04T12:27:14.274Z,36.80
2018-11-04T12:29:42.820Z,36.60
2018-11-04T12:32:11.290Z,36.40
2018-11-04T12:34:39.745Z,37.73
2018-11-04T12:37:08.149Z,35.87
2018-11-04T12:39:36.508Z,35.87
2018-11-04T12:42:05.066Z,35.20
2018-11-04T12:44:33.575Z,34.87
2018-11-04T12:47:02.006Z,36.73
2018-11-04T12:49:30.452Z,36.73
2018-11-04T12:51:58.952Z,36.87
2018-11-04T12:54:27.362Z,36.63
2018-11-04T12:56:55.788Z,34.87
2018-11-04T12:59:24.216Z,35.77
2018-11-04T13:01:52.816Z,36.30
2018-11-04T13:04:21.225Z,36.63
2018-11-04T13:06:49.684Z,36.73
2018-11-04T13:09:18.021Z,38.87
2018-11-04T13:11:46.385Z,37.60
2018-11-04T13:14:14.790Z,39.37
2018-11-04T13:16:43.190Z,38.60
2018-11-04T13:19:11.584Z,39.43
2018-11-04T13:21:39.984Z,39.50
2018-11-04T13:24:09.049Z,37.27
2018-11-04T13:26:37.530Z,40.77
2018-11-04T13:29:06.245Z,39.93
2018-11-04T13:31:34.703Z,36.07
2018-11-04T13:34:03.206Z,39.60
2018-11-04T13:36:31.593Z,39.90
2018-11-04T13:39:00.107Z,39.63
2018-11-04T13:41:28.686Z,37.33
2018-11-04T13:43:57.167Z,38.53
2018-11-04T13:46:25.714Z,38.27
2018-11-04T13:48:54.200Z,38.97
2018-11-04T13:51:22.630Z,41.10
2018-11-04T13:53:51.018Z,37.13
2018-11-04T13:56:21.023Z,37.73
2018-11-04T13:58:50.109Z,38.73
2018-11-04T14:01:18.749Z,39.37
2018-11-04T14:03:47.216Z,39.40
2018-11-04T14:06:16.014Z,39.00
2018-11-04T14:08:44.742Z,39.03
2018-11-04T14:11:13.337Z,38.33
2018-11-04T14:13:41.726Z,40.60
2018-11-04T14:16:10.137Z,39.27
2018-11-04T14:18:38.796Z,39.90
2018-11-04T14:21:07.238Z,39.40
2018-11-04T14:23:35.675Z,37.33
2018-11-04T14:26:04.041Z,39.83
2018-11-04T14:28:32.420Z,37.50
2018-11-04T14:31:00.839Z,38.10
2018-11-04T14:33:29.205Z,37.57
2018-11-04T14:35:57.644Z,39.03
2018-11-04T14:38:26.146Z,38.63
2018-11-04T14:40:54.618Z,39.67
2018-11-04T14:43:23.086Z,40.07
2018-11-04T14:45:51.517Z,37.63
2018-11-04T14:48:20.049Z,40.93
2018-11-04T14:50:48.464Z,38.97
2018-11-04T14:53:16.931Z,38.60
2018-11-04T14:55:45.329Z,38.63
2018-11-04T14:58:13.780Z,39.07
2018-11-04T15:00:42.296Z,38.63
2018-11-04T15:03:10.702Z,38.80
2018-11-04T15:05:39.240Z,38.73
2018-11-04T15:08:07.678Z,39.40
2018-11-04T15:10:36.055Z,37.13
2018-11-04T15:13:04.543Z,39.40
2018-11-04T15:15:33.057Z,40.30
2018-11-04T15:18:01.414Z,39.87
2018-11-04T15:20:29.904Z,38.10
2018-11-04T15:22:58.250Z,39.03
2018-11-04T15:25:26.645Z,38.33
2018-11-04T15:27:55.016Z,39.50
2018-11-04T15:30:23.425Z,40.27
2018-11-04T15:32:51.839Z,38.40
2018-11-04T15:35:20.329Z,37.50
2018-11-04T15:37:48.674Z,39.87
2018-11-04T15:40:17.525Z,40.83
2018-11-04T15:42:45.936Z,39.27
2018-11-04T15:45:15.241Z,37.67
2018-11-04T15:47:43.733Z,38.37
2018-11-04T15:50:16.708Z,38.13
2018-11-04T15:52:45.242Z,39.60
2018-11-04T15:55:13.651Z,40.33
2018-11-04T15:57:43.111Z,37.37
2018-11-04T16:00:12.986Z,38.33
2018-11-04T16:02:41.398Z,37.63
2018-11-04T16:05:10.572Z,37.97
2018-11-04T16:07:39.063Z,38.80
2018-11-04T16:10:08.777Z,38.30
2018-11-04T16:12:37.738Z,39.70
2018-11-04T16:15:08.174Z,38.20
2018-11-04T16:17:36.660Z,36.30
2018-11-04T16:20:05.983Z,37.67
2018-11-04T16:22:34.363Z,39.17
2018-11-04T16:25:02.797Z,41.07
2018-11-04T16:27:32.213Z,51.27
2018-11-04T16:30:00.639Z,40.90
2018-11-04T16:32:29.125Z,42.87
2018-11-04T16:34:57.524Z,38.93
2018-11-04T16:37:25.973Z,39.80
2018-11-04T16:39:54.377Z,38.73
2018-11-04T16:42:22.770Z,41.03
2018-11-04T16:44:51.151Z,38.83
2018-11-04T16:47:19.570Z,39.70
2018-11-04T16:49:47.993Z,39.40
2018-11-04T16:52:16.370Z,40.93
2018-11-04T16:54:44.844Z,40.17
2018-11-04T16:57:13.250Z,40.47
2018-11-04T16:59:41.657Z,41.27
2018-11-04T17:02:10.105Z,42.37
2018-11-04T17:04:38.619Z,39.77
2018-11-04T17:07:07.003Z,42.70
2018-11-04T17:09:35.576Z,40.03
2018-11-04T17:12:03.983Z,43.37
2018-11-04T17:14:32.344Z,42.77
2018-11-04T17:17:00.732Z,40.63
2018-11-04T17:19:29.184Z,42.03
2018-11-04T17:21:57.590Z,42.53
2018-11-04T17:24:25.976Z,42.83
2018-11-04T17:26:54.478Z,44.10
2018-11-04T17:29:22.878Z,44.27
2018-11-04T17:31:51.300Z,44.00
2018-11-04T17:34:20.795Z,45.40
2018-11-04T17:36:49.408Z,42.63
2018-11-04T17:39:17.994Z,44.47
2018-11-04T17:41:46.405Z,42.47
2018-11-04T17:44:14.882Z,42.37
2018-11-04T17:46:43.233Z,44.80
2018-11-04T17:49:11.686Z,44.73
2018-11-04T17:51:40.149Z,43.33
2018-11-04T17:54:08.718Z,42.93
2018-11-04T17:56:37.097Z,43.47
2018-11-04T17:59:05.567Z,41.97
2018-11-04T18:01:34.018Z,43.67
2018-11-04T18:04:02.752Z,43.33
2018-11-04T18:06:31.213Z,42.27
2018-11-04T18:08:59.564Z,42.57
2018-11-04T18:11:28.000Z,42.40
2018-11-04T18:13:56.468Z,40.97
2018-11-04T18:16:24.840Z,42.07
2018-11-04T18:18:53.241Z,41.33
2018-11-04T18:21:21.671Z,40.10
2018-11-04T18:23:50.046Z,42.70
2018-11-04T18:26:18.514Z,39.77
2018-11-04T18:28:46.835Z,40.97
2018-11-04T18:31:15.248Z,40.50
2018-11-04T18:33:44.061Z,40.17
2018-11-04T18:36:12.461Z,40.20
2018-11-04T18:38:40.902Z,39.90
2018-11-04T18:41:09.398Z,40.67
2018-11-04T18:43:37.833Z,38.27
2018-11-04T18:46:06.283Z,39.70
2018-11-04T18:48:34.648Z,39.63
2018-11-04T18:51:03.199Z,38.60
2018-11-04T18:53:31.622Z,37.93
2018-11-04T18:56:00.498Z,37.73
2018-11-04T18:58:28.948Z,38.53
2018-11-04T19:00:57.639Z,36.53
2018-11-04T19:03:26.064Z,37.77
2018-11-04T19:05:54.473Z,35.97
2018-11-04T19:08:22.872Z,36.80
2018-11-04T19:10:51.256Z,39.00
2018-11-04T19:13:19.681Z,38.83
2018-11-04T19:15:48.071Z,36.73
2018-11-04T19:18:16.515Z,37.70
2018-11-04T19:20:44.946Z,37.50
2018-11-04T19:23:13.373Z,37.37
2018-11-04T19:25:41.776Z,36.37
2018-11-04T19:28:10.200Z,35.57
2018-11-04T19:30:39.201Z,36.07
2018-11-04T19:33:07.663Z,36.70
2018-11-04T19:35:36.044Z,36.30
2018-11-04T19:38:04.469Z,34.70
2018-11-04T19:40:32.922Z,35.53
2018-11-04T19:43:01.398Z,36.23
2018-11-04T19:45:29.953Z,35.47
2018-11-04T19:47:58.384Z,34.90
2018-11-04T19:50:26.727Z,34.33
2018-11-04T19:52:55.471Z,33.87
2018-11-04T19:55:23.886Z,32.57
2018-11-04T19:57:52.355Z,30.53
2018-11-04T20:00:20.829Z,34.33
2018-11-04T20:02:49.266Z,32.50
2018-11-04T20:05:17.909Z,33.97
2018-11-04T20:07:46.520Z,33.97
2018-11-04T20:10:17.212Z,32.23
2018-11-04T20:12:51.643Z,33.47
2018-11-04T20:15:20.204Z,33.07
2018-11-04T20:17:49.356Z,33.40
2018-11-04T20:20:20.685Z,33.10
2018-11-04T20:22:49.023Z,32.77
2018-11-04T20:25:22.729Z,33.03
2018-11-04T20:27:51.317Z,32.80
2018-11-04T20:30:19.804Z,31.43
2018-11-04T20:32:53.599Z,33.80
2018-11-04T20:35:22.024Z,32.77
2018-11-04T20:37:50.468Z,31.93
2018-11-04T20:40:24.352Z,33.37
2018-11-04T20:42:52.765Z,32.03
2018-11-04T20:45:21.227Z,33.60
2018-11-04T20:47:55.030Z,34.53
2018-11-04T20:50:28.761Z,32.83
2018-11-04T20:52:57.333Z,32.27
2018-11-04T20:55:29.961Z,32.37
2018-11-04T20:57:59.333Z,32.73
2018-11-04T21:00:27.818Z,33.80
2018-11-04T21:02:56.525Z,33.93
2018-11-04T21:05:24.933Z,33.97
2018-11-04T21:07:53.674Z,34.07
2018-11-04T21:10:23.280Z,34.60
2018-11-04T21:12:51.700Z,32.27
2018-11-04T21:15:20.123Z,37.75
2018-11-04T21:17:48.469Z,33.17
2018-11-04T21:20:16.831Z,31.93
2018-11-04T21:22:45.261Z,32.40
2018-11-04T21:25:13.885Z,30.60
2018-11-04T21:27:42.352Z,32.40
2018-11-04T21:30:12.198Z,32.47
2018-11-04T21:32:40.622Z,33.70
2018-11-04T21:35:09.337Z,29.60
2018-11-04T21:37:37.758Z,31.17
2018-11-04T21:40:07.819Z,31.77
2018-11-04T21:42:36.404Z,32.63
2018-11-04T21:45:05.402Z,31.03
2018-11-04T21:47:33.885Z,32.27
2018-11-04T21:50:02.298Z,30.47
2018-11-04T21:52:30.645Z,32.00
2018-11-04T21:54:59.142Z,31.63
2018-11-04T21:57:27.592Z,35.13
2018-11-04T21:59:55.989Z,30.57
2018-11-04T22:02:24.508Z,30.43
2018-11-04T22:04:52.748Z,31.63
2018-11-04T22:07:21.173Z,30.60
2018-11-04T22:09:49.598Z,31.17
2018-11-04T22:12:17.977Z,30.77
2018-11-04T22:14:46.397Z,30.47
2018-11-04T22:17:14.775Z,31.30
2018-11-04T22:19:43.173Z,30.63
2018-11-04T22:22:11.564Z,32.07
2018-11-04T22:24:39.964Z,29.47
2018-11-04T22:27:08.343Z,31.00
2018-11-04T22:29:36.704Z,30.00
2018-11-04T22:32:05.723Z,30.03
2018-11-04T22:37:08.828Z,31.33
2018-11-04T22:39:37.232Z,31.17
2018-11-04T22:42:05.699Z,28.90
2018-11-04T22:44:34.157Z,31.23
2018-11-04T22:47:02.506Z,31.40
2018-11-04T22:49:30.886Z,29.97
2018-11-04T22:51:59.325Z,30.30
2018-11-04T22:54:27.803Z,29.90
2018-11-04T22:56:57.209Z,30.00
2018-11-04T22:59:25.586Z,30.57
2018-11-04T23:02:00.847Z,30.80
2018-11-04T23:04:34.700Z,32.80
2018-11-04T23:07:03.068Z,33.57
2018-11-04T23:09:31.416Z,33.20
2018-11-04T23:11:59.773Z,32.73
2018-11-04T23:14:28.104Z,32.90
2018-11-04T23:16:56.513Z,31.87
2018-11-04T23:19:25.016Z,33.53
2018-11-04T23:21:53.455Z,32.27
2018-11-04T23:24:21.892Z,33.97
2018-11-04T23:26:50.305Z,32.47
2018-11-04T23:29:18.930Z,33.20
2018-11-04T23:31:47.310Z,33.17
2018-11-04T23:34:15.632Z,34.07
2018-11-04T23:36:44.008Z,31.97
2018-11-04T23:39:12.353Z,32.77
2018-11-04T23:41:41.174Z,32.67
2018-11-04T23:44:09.581Z,31.60
2018-11-04T23:46:37.969Z,32.83
2018-11-04T23:49:06.433Z,33.17
2018-11-04T23:51:34.891Z,32.83
2018-11-04T23:54:03.245Z,33.57
2018-11-04T23:56:31.729Z,35.50
2018-11-04T23:59:00.078Z,33.27
